createdAt,value
2017-07-23T00:01:58.670Z,54.75
2017-07-23T00:04:33.891Z,54.01
2017-07-23T00:07:10.754Z,53.98
2017-07-23T00:09:44.972Z,52.77
2017-07-23T00:12:19.183Z,52.58
2017-07-23T00:14:59.914Z,52.87
2017-07-23T00:17:38.268Z,53.21
2017-07-23T00:23:45.357Z,53.33
2017-07-23T00:26:38.254Z,53.42
2017-07-23T00:29:25.739Z,53.71
2017-07-23T00:32:05.112Z,53.67
2017-07-23T00:34:45.729Z,53.95
2017-07-23T00:37:20.987Z,53.92
2017-07-23T00:39:59.407Z,54.37
2017-07-23T00:42:38.896Z,54.67
2017-07-23T00:45:15.888Z,54.71
2017-07-23T00:47:52.743Z,54.64
2017-07-23T00:50:38.622Z,54.57
2017-07-23T00:53:15.594Z,54.70
2017-07-23T00:55:58.649Z,55.09
2017-07-23T00:58:34.586Z,54.80
2017-07-23T01:01:12.425Z,54.71
2017-07-23T01:03:50.215Z,54.72
2017-07-23T01:06:31.112Z,54.76
2017-07-23T01:09:16.982Z,54.71
2017-07-23T01:11:55.630Z,54.65
2017-07-23T01:14:32.607Z,54.59
2017-07-23T01:17:06.742Z,55.02
2017-07-23T01:19:45.918Z,55.12
2017-07-23T01:22:27.545Z,55.42
2017-07-23T01:25:07.963Z,55.35
2017-07-23T01:27:47.728Z,55.28
2017-07-23T01:30:48.903Z,55.03
2017-07-23T01:33:45.891Z,54.93
2017-07-23T01:36:25.911Z,54.88
2017-07-23T01:39:02.459Z,54.87
2017-07-23T01:41:39.749Z,54.77
2017-07-23T01:44:17.820Z,55.04
2017-07-23T01:46:56.016Z,55.15
2017-07-23T01:49:30.452Z,55.30
2017-07-23T01:52:12.965Z,55.54
2017-07-23T01:54:48.531Z,55.87
2017-07-23T01:57:25.579Z,56.06
2017-07-23T02:00:06.954Z,56.43
2017-07-23T02:02:47.377Z,57.07
2017-07-23T02:05:26.716Z,57.02
2017-07-23T02:08:10.369Z,55.74
2017-07-23T02:10:59.441Z,54.74
2017-07-23T02:13:39.247Z,55.26
2017-07-23T02:16:18.866Z,56.26
2017-07-23T02:18:56.006Z,56.70
2017-07-23T02:21:39.206Z,57.50
2017-07-23T02:24:22.382Z,57.49
2017-07-23T02:26:56.734Z,57.52
2017-07-23T02:29:31.973Z,57.87
2017-07-23T02:32:13.700Z,58.22
2017-07-23T02:34:56.691Z,58.77
2017-07-23T02:37:33.260Z,58.67
2017-07-23T02:40:12.631Z,58.63
2017-07-23T02:42:52.136Z,58.56
2017-07-23T02:48:40.925Z,58.26
2017-07-23T02:51:29.341Z,58.82
2017-07-23T02:54:30.377Z,59.30
2017-07-23T02:57:25.240Z,59.51
2017-07-23T03:05:49.600Z,60.44
2017-07-23T03:08:21.062Z,60.76
2017-07-23T03:10:52.691Z,61.50
2017-07-23T03:13:24.043Z,62.20
2017-07-23T03:15:55.425Z,62.32
2017-07-23T03:18:26.743Z,62.68
2017-07-23T03:20:58.095Z,63.03
2017-07-23T03:23:29.724Z,63.05
2017-07-23T03:26:02.251Z,63.48
2017-07-23T03:28:34.656Z,63.32
2017-07-23T03:31:06.012Z,63.33
2017-07-23T03:33:37.382Z,63.45
2017-07-23T03:36:09.532Z,63.71
2017-07-23T03:38:40.961Z,63.78
2017-07-23T03:41:12.727Z,64.42
2017-07-23T03:43:44.134Z,64.69
2017-07-23T03:46:15.524Z,64.87
2017-07-23T03:48:46.880Z,65.75
2017-07-23T03:51:18.252Z,66.10
2017-07-23T03:53:49.904Z,66.43
2017-07-23T03:56:22.699Z,66.99
2017-07-23T03:58:55.550Z,66.79
2017-07-23T04:01:28.310Z,66.81
2017-07-23T04:03:59.672Z,67.25
2017-07-23T04:06:31.875Z,67.30
2017-07-23T04:09:05.300Z,66.89
2017-07-23T04:11:36.987Z,67.21
2017-07-23T04:14:09.341Z,67.12
2017-07-23T04:16:40.735Z,67.37
2017-07-23T04:19:12.096Z,67.86
2017-07-23T04:21:43.539Z,67.82
2017-07-23T04:24:15.199Z,67.68
2017-07-23T04:26:46.566Z,67.68
2017-07-23T04:29:18.229Z,67.97
2017-07-23T04:31:49.724Z,68.03
2017-07-23T04:35:23.843Z,67.97
2017-07-23T04:37:55.233Z,67.97
2017-07-23T04:40:26.677Z,68.14
2017-07-23T04:42:58.523Z,68.26
2017-07-23T04:45:29.887Z,68.19
2017-07-23T04:48:01.301Z,67.76
2017-07-23T04:50:32.694Z,67.47
2017-07-23T04:53:04.061Z,67.11
2017-07-23T04:55:36.852Z,67.08
2017-07-23T04:58:08.625Z,66.80
2017-07-23T05:00:40.253Z,66.09
2017-07-23T05:03:11.631Z,65.36
2017-07-23T05:05:42.975Z,64.88
2017-07-23T05:08:14.707Z,64.79
2017-07-23T05:10:46.095Z,65.50
2017-07-23T05:13:17.511Z,65.48
2017-07-23T05:15:49.316Z,65.32
2017-07-23T05:18:20.643Z,64.71
2017-07-23T05:20:52.301Z,64.48
2017-07-23T05:23:25.229Z,64.53
2017-07-23T05:25:56.638Z,64.76
2017-07-23T05:28:28.448Z,64.22
2017-07-23T05:30:59.817Z,64.19
2017-07-23T05:33:31.212Z,63.69
2017-07-23T05:36:03.925Z,63.18
2017-07-23T05:38:35.567Z,63.30
2017-07-23T05:41:07.679Z,63.03
2017-07-23T05:43:39.558Z,63.38
2017-07-23T05:46:12.028Z,63.41
2017-07-23T05:48:44.623Z,63.38
2017-07-23T05:51:17.655Z,63.04
2017-07-23T05:53:51.069Z,61.83
2017-07-23T05:59:17.549Z,59.23
2017-07-23T06:01:49.311Z,58.94
2017-07-23T06:04:20.967Z,58.69
2017-07-23T06:06:54.093Z,58.20
2017-07-23T06:09:26.058Z,57.06
2017-07-23T06:11:57.880Z,58.26
2017-07-23T06:14:29.674Z,57.02
2017-07-23T06:17:01.436Z,55.82
2017-07-23T06:19:33.173Z,56.08
2017-07-23T06:22:05.568Z,55.51
2017-07-23T06:24:36.937Z,56.30
2017-07-23T06:27:08.308Z,54.37
2017-07-23T06:29:40.057Z,54.63
2017-07-23T06:32:11.890Z,54.82
2017-07-23T06:34:43.312Z,54.70
2017-07-23T06:37:15.065Z,54.08
2017-07-23T06:39:46.486Z,52.71
2017-07-23T06:42:17.931Z,52.51
2017-07-23T06:44:49.630Z,53.10
2017-07-23T06:47:21.468Z,53.17
2017-07-23T06:49:52.901Z,53.01
2017-07-23T06:52:24.660Z,52.74
2017-07-23T06:55:00.261Z,52.38
2017-07-23T06:57:33.076Z,51.73
2017-07-23T07:09:35.301Z,48.30
2017-07-23T07:12:22.374Z,48.20
2017-07-23T07:14:54.219Z,48.35
2017-07-23T07:17:31.431Z,47.87
2017-07-23T07:20:05.317Z,47.10
2017-07-23T07:22:37.389Z,47.83
2017-07-23T07:25:08.838Z,47.84
2017-07-23T07:27:40.219Z,47.20
2017-07-23T07:30:12.015Z,47.34
2017-07-23T07:32:43.409Z,46.80
2017-07-23T07:35:15.227Z,46.12
2017-07-23T07:37:46.705Z,45.45
2017-07-23T07:40:18.165Z,46.11
2017-07-23T07:42:49.690Z,46.21
2017-07-23T07:45:21.147Z,46.23
2017-07-23T07:47:52.583Z,45.08
2017-07-23T07:50:23.979Z,44.47
2017-07-23T07:52:56.720Z,43.75
2017-07-23T07:55:28.426Z,44.31
2017-07-23T07:58:00.139Z,43.65
2017-07-23T08:00:32.826Z,43.40
2017-07-23T08:03:04.192Z,42.76
2017-07-23T08:05:36.575Z,42.86
2017-07-23T08:08:13.221Z,43.83
2017-07-23T08:10:44.884Z,43.39
2017-07-23T08:13:16.696Z,43.22
2017-07-23T08:15:48.660Z,42.73
2017-07-23T08:18:21.031Z,42.84
2017-07-23T08:20:53.301Z,42.85
2017-07-23T08:23:24.878Z,42.90
2017-07-23T08:25:57.041Z,43.46
2017-07-23T08:28:29.542Z,43.58
2017-07-23T08:31:01.106Z,43.74
2017-07-23T08:33:33.522Z,43.76
2017-07-23T08:36:07.957Z,43.35
2017-07-23T08:38:39.572Z,42.58
2017-07-23T08:41:11.275Z,41.71
2017-07-23T08:43:44.151Z,41.51
2017-07-23T08:46:17.653Z,41.46
2017-07-23T08:48:52.661Z,40.52
2017-07-23T08:51:24.871Z,40.83
2017-07-23T08:53:56.243Z,40.71
2017-07-23T08:56:28.511Z,40.73
2017-07-23T08:59:05.141Z,41.09
2017-07-23T09:01:38.364Z,41.07
2017-07-23T09:04:12.875Z,40.98
2017-07-23T09:06:48.407Z,40.49
2017-07-23T09:09:23.208Z,39.69
2017-07-23T09:12:00.050Z,38.81
2017-07-23T09:14:32.923Z,38.55
2017-07-23T09:17:11.514Z,38.52
2017-07-23T09:19:46.200Z,37.68
2017-07-23T09:22:25.941Z,37.42
2017-07-23T09:25:02.087Z,37.86
2017-07-23T09:30:41.447Z,37.01
2017-07-23T09:33:14.957Z,38.04
2017-07-23T09:35:47.730Z,38.19
2017-07-23T09:38:21.844Z,38.34
2017-07-23T09:40:55.050Z,38.51
2017-07-23T09:43:27.654Z,38.40
2017-07-23T09:46:11.106Z,38.31
2017-07-23T09:48:58.367Z,37.70
2017-07-23T09:51:34.103Z,37.17
2017-07-23T09:54:13.443Z,36.39
2017-07-23T09:56:49.874Z,37.21
2017-07-23T09:59:23.590Z,37.68
2017-07-23T10:01:57.961Z,37.40
2017-07-23T10:04:32.262Z,37.14
2017-07-23T10:10:37.435Z,36.21
2017-07-23T10:13:14.294Z,36.71
2017-07-23T10:15:49.510Z,37.21
2017-07-23T10:18:23.340Z,37.09
2017-07-23T10:20:57.651Z,36.53
2017-07-23T10:23:30.846Z,37.05
2017-07-23T10:26:08.087Z,37.83
2017-07-23T10:28:40.266Z,37.79
2017-07-23T10:31:14.640Z,37.56
2017-07-23T10:33:49.653Z,37.04
2017-07-23T10:36:25.306Z,36.02
2017-07-23T10:38:58.618Z,35.21
2017-07-23T10:41:31.732Z,34.55
2017-07-23T10:44:07.714Z,34.28
2017-07-23T10:46:40.752Z,34.38
2017-07-23T10:49:14.151Z,34.29
2017-07-23T10:51:47.316Z,33.90
2017-07-23T10:54:21.891Z,33.64
2017-07-23T10:56:53.732Z,33.59
2017-07-23T10:59:26.216Z,33.55
2017-07-23T11:01:58.567Z,32.00
2017-07-23T11:04:31.213Z,31.90
2017-07-23T11:07:25.159Z,31.93
2017-07-23T11:09:58.216Z,32.47
2017-07-23T11:12:36.689Z,34.03
2017-07-23T11:15:11.335Z,34.90
2017-07-23T11:17:46.646Z,36.05
2017-07-23T11:20:21.109Z,35.62
2017-07-23T11:22:57.135Z,35.23
2017-07-23T11:25:30.607Z,34.99
2017-07-23T11:28:24.651Z,35.15
2017-07-23T11:31:05.693Z,34.33
2017-07-23T11:33:46.773Z,32.89
2017-07-23T11:42:11.382Z,30.37
2017-07-23T11:44:48.367Z,30.78
2017-07-23T11:47:33.659Z,30.72
2017-07-23T11:50:21.471Z,31.31
2017-07-23T11:53:02.046Z,31.08
2017-07-23T11:55:38.467Z,30.02
2017-07-23T12:01:21.631Z,30.10
2017-07-23T12:04:07.220Z,30.47
2017-07-23T12:06:46.906Z,30.76
2017-07-23T12:09:26.564Z,29.94
2017-07-23T12:12:29.623Z,29.21
2017-07-23T12:15:32.383Z,30.08
2017-07-23T12:21:44.763Z,31.25
2017-07-23T12:28:24.500Z,31.51
2017-07-23T12:34:06.959Z,30.11
2017-07-23T12:36:51.818Z,29.10
2017-07-23T12:42:38.410Z,27.11
2017-07-23T12:45:11.951Z,27.51
2017-07-23T12:47:47.411Z,27.02
2017-07-23T12:50:26.906Z,26.66
2017-07-23T12:53:01.923Z,26.69
2017-07-23T12:55:37.231Z,27.55
2017-07-23T12:58:13.947Z,27.87
2017-07-23T13:00:49.472Z,27.70
2017-07-23T13:03:24.784Z,28.08
2017-07-23T13:06:00.596Z,28.93
2017-07-23T13:08:33.702Z,27.80
2017-07-23T13:11:17.207Z,26.66
2017-07-23T13:13:55.817Z,24.65
2017-07-23T13:16:32.508Z,22.93
2017-07-23T13:19:05.716Z,25.91
2017-07-23T13:21:39.487Z,25.98
2017-07-23T13:24:12.956Z,24.48
2017-07-23T13:26:46.250Z,23.83
2017-07-23T13:29:19.613Z,24.22
2017-07-23T13:31:52.700Z,25.69
2017-07-23T13:34:25.824Z,27.03
2017-07-23T13:36:59.233Z,28.59
2017-07-23T13:39:32.187Z,29.89
2017-07-23T13:42:06.306Z,30.85
2017-07-23T13:44:39.784Z,31.77
2017-07-23T13:47:12.738Z,31.40
2017-07-23T13:49:45.752Z,31.31
2017-07-23T13:52:18.866Z,31.04
2017-07-23T13:54:52.542Z,31.01
2017-07-23T13:57:32.212Z,31.69
2017-07-23T14:00:25.270Z,31.52
2017-07-23T14:02:58.522Z,31.65
2017-07-23T14:05:31.253Z,32.19
2017-07-23T14:08:04.691Z,31.16
2017-07-23T14:10:36.475Z,31.93
2017-07-23T14:13:09.604Z,32.58
2017-07-23T14:15:42.000Z,32.83
2017-07-23T14:18:15.702Z,33.36
2017-07-23T14:20:51.033Z,33.97
2017-07-23T14:23:28.061Z,33.85
2017-07-23T14:26:07.673Z,33.44
2017-07-23T14:28:41.663Z,32.06
2017-07-23T14:31:19.612Z,31.88
2017-07-23T14:33:54.839Z,32.58
2017-07-23T14:36:31.083Z,33.04
2017-07-23T14:39:10.496Z,33.72
2017-07-23T14:41:48.739Z,34.20
2017-07-23T14:44:27.606Z,34.18
2017-07-23T14:47:07.093Z,33.70
2017-07-23T14:49:40.900Z,33.18
2017-07-23T14:52:24.639Z,32.66
2017-07-23T14:57:53.642Z,32.83
2017-07-23T15:00:27.088Z,33.33
2017-07-23T15:03:00.647Z,33.00
2017-07-23T15:05:33.221Z,32.84
2017-07-23T15:08:07.144Z,33.30
2017-07-23T15:10:41.459Z,33.69
2017-07-23T15:16:20.875Z,34.47
2017-07-23T15:18:58.810Z,34.40
2017-07-23T15:21:40.285Z,33.99
2017-07-23T15:24:17.876Z,33.96
2017-07-23T15:26:56.081Z,34.04
2017-07-23T15:29:34.589Z,34.28
2017-07-23T15:32:13.810Z,34.85
2017-07-23T15:37:29.539Z,34.78
2017-07-23T15:40:02.742Z,34.35
2017-07-23T15:42:38.679Z,34.38
2017-07-23T15:45:12.202Z,33.93
2017-07-23T15:47:46.033Z,34.33
2017-07-23T15:50:19.190Z,33.16
2017-07-23T15:52:52.652Z,33.81
2017-07-23T15:55:26.022Z,34.22
2017-07-23T15:57:58.928Z,34.52
2017-07-23T16:00:32.073Z,34.56
2017-07-23T16:03:05.576Z,34.57
2017-07-23T16:05:37.974Z,34.41
2017-07-23T16:08:10.753Z,34.22
2017-07-23T16:10:44.644Z,34.68
2017-07-23T16:13:17.472Z,35.16
2017-07-23T16:15:50.406Z,35.46
2017-07-23T16:18:25.238Z,35.30
2017-07-23T16:20:59.446Z,34.69
2017-07-23T16:23:33.207Z,34.10
2017-07-23T16:26:06.718Z,32.76
2017-07-23T16:28:39.699Z,32.28
2017-07-23T16:31:12.406Z,32.55
2017-07-23T16:33:45.233Z,33.63
2017-07-23T16:36:18.355Z,34.23
2017-07-23T16:38:51.537Z,35.03
2017-07-23T16:41:23.601Z,35.36
2017-07-23T16:43:56.564Z,35.57
2017-07-23T16:46:29.864Z,34.94
2017-07-23T16:49:03.478Z,35.13
2017-07-23T16:51:36.550Z,35.08
2017-07-23T16:54:12.044Z,35.63
2017-07-23T16:56:44.790Z,35.24
2017-07-23T16:59:17.785Z,34.74
2017-07-23T17:01:50.847Z,34.59
2017-07-23T17:04:23.425Z,35.04
2017-07-23T17:06:56.250Z,35.17
2017-07-23T17:09:29.460Z,35.23
2017-07-23T17:12:05.124Z,35.32
2017-07-23T17:14:43.286Z,35.55
2017-07-23T17:17:38.359Z,35.80
2017-07-23T17:23:22.656Z,35.81
2017-07-23T17:26:08.625Z,36.18
2017-07-23T17:37:40.950Z,36.08
2017-07-23T17:40:37.729Z,36.36
2017-07-23T17:46:03.941Z,36.64
2017-07-23T17:48:36.843Z,36.33
2017-07-23T17:51:09.974Z,36.10
2017-07-23T17:53:42.259Z,36.23
2017-07-23T17:56:15.063Z,36.23
2017-07-23T17:58:47.880Z,36.02
2017-07-23T18:01:20.895Z,35.69
2017-07-23T18:04:00.608Z,35.75
2017-07-23T18:09:29.958Z,35.71
2017-07-23T18:12:16.920Z,36.18
2017-07-23T18:14:50.164Z,36.32
2017-07-23T18:17:23.271Z,36.97
2017-07-23T18:19:55.055Z,37.45
2017-07-23T18:22:28.212Z,37.82
2017-07-23T18:25:01.683Z,37.86
2017-07-23T18:27:35.540Z,37.90
2017-07-23T18:30:13.052Z,38.44
2017-07-23T18:32:45.710Z,38.47
2017-07-23T18:35:19.389Z,38.42
2017-07-23T18:37:55.947Z,38.68
2017-07-23T18:40:28.876Z,38.58
2017-07-23T18:43:01.428Z,38.61
2017-07-23T18:45:33.901Z,38.49
2017-07-23T18:48:08.580Z,38.66
2017-07-23T18:50:44.270Z,39.03
2017-07-23T18:53:16.885Z,39.04
2017-07-23T18:55:50.452Z,39.33
2017-07-23T18:58:27.100Z,39.40
2017-07-23T19:01:02.197Z,39.44
2017-07-23T19:03:35.574Z,39.59
2017-07-23T19:06:11.258Z,39.74
2017-07-23T19:08:44.078Z,39.96
2017-07-23T19:11:17.607Z,40.02
2017-07-23T19:13:49.825Z,40.39
2017-07-23T19:16:24.110Z,40.34
2017-07-23T19:18:59.521Z,40.57
2017-07-23T19:21:49.952Z,40.88
2017-07-23T19:27:09.758Z,41.15
2017-07-23T19:32:24.814Z,41.56
2017-07-23T19:34:57.734Z,41.36
2017-07-23T19:37:30.154Z,41.45
2017-07-23T19:42:46.191Z,41.55
2017-07-23T19:46:18.150Z,41.47
2017-07-23T19:51:33.497Z,41.35
2017-07-23T19:54:08.146Z,41.40
2017-07-23T19:56:50.936Z,41.49
2017-07-23T19:59:24.869Z,41.77
2017-07-23T20:01:57.342Z,41.79
2017-07-23T20:04:31.930Z,42.00
2017-07-23T20:07:05.097Z,41.91
2017-07-23T20:09:39.379Z,42.76
2017-07-23T20:12:15.618Z,42.95
2017-07-23T20:14:49.728Z,43.18
2017-07-23T20:17:24.285Z,43.42
2017-07-23T20:19:57.989Z,43.56
2017-07-23T20:22:33.210Z,43.70
2017-07-23T20:25:06.868Z,43.58
2017-07-23T20:27:59.122Z,43.62
2017-07-23T20:30:32.549Z,43.59
2017-07-23T20:33:06.461Z,43.64
2017-07-23T20:35:40.046Z,43.78
2017-07-23T20:38:14.208Z,43.84
2017-07-23T20:40:46.254Z,43.80
2017-07-23T20:43:22.311Z,43.97
2017-07-23T20:45:55.605Z,44.05
2017-07-23T20:48:27.682Z,44.12
2017-07-23T20:51:01.357Z,44.29
2017-07-23T20:53:35.927Z,44.19
2017-07-23T20:56:13.702Z,44.29
2017-07-23T20:58:53.069Z,44.59
2017-07-23T21:01:30.692Z,44.56
2017-07-23T21:04:08.324Z,44.53
2017-07-23T21:06:45.640Z,44.76
2017-07-23T21:09:19.302Z,44.89
2017-07-23T21:11:56.104Z,44.85
2017-07-23T21:14:30.806Z,44.86
2017-07-23T21:17:14.967Z,44.99
2017-07-23T21:19:53.729Z,45.33
2017-07-23T21:22:27.652Z,45.64
2017-07-23T21:25:01.668Z,45.48
2017-07-23T21:27:35.789Z,45.88
2017-07-23T21:30:13.182Z,46.08
2017-07-23T21:32:44.981Z,46.40
2017-07-23T21:35:17.895Z,46.46
2017-07-23T21:37:50.742Z,46.46
2017-07-23T21:40:22.238Z,46.68
2017-07-23T21:42:54.675Z,47.02
2017-07-23T21:45:27.231Z,47.14
2017-07-23T21:47:59.988Z,47.03
2017-07-23T21:50:31.579Z,47.02
2017-07-23T21:53:03.822Z,47.33
2017-07-23T21:55:35.598Z,47.27
2017-07-23T21:58:08.490Z,47.20
2017-07-23T22:00:40.481Z,46.90
2017-07-23T22:03:12.748Z,47.13
2017-07-23T22:05:45.261Z,47.10
2017-07-23T22:08:18.984Z,46.86
2017-07-23T22:10:50.566Z,46.83
2017-07-23T22:13:25.191Z,47.01
2017-07-23T22:15:57.022Z,47.11
2017-07-23T22:18:30.393Z,47.23
2017-07-23T22:30:09.140Z,46.99
2017-07-23T22:32:40.597Z,47.15
2017-07-23T22:35:12.600Z,47.28
2017-07-23T22:37:45.127Z,47.60
2017-07-23T22:40:19.869Z,47.88
2017-07-23T22:42:53.148Z,48.02
2017-07-23T22:45:25.031Z,48.28
2017-07-23T22:47:56.696Z,48.29
2017-07-23T22:50:28.601Z,48.48
2017-07-23T22:53:00.316Z,48.45
2017-07-23T22:55:33.963Z,48.55
2017-07-23T22:58:11.046Z,48.70
2017-07-23T23:00:44.714Z,49.03
2017-07-23T23:03:16.354Z,48.91
2017-07-23T23:05:48.471Z,49.05
2017-07-23T23:08:23.670Z,48.92
2017-07-23T23:10:56.568Z,48.99
2017-07-23T23:13:30.252Z,49.16
2017-07-23T23:16:06.146Z,49.40
2017-07-23T23:18:40.047Z,49.40
2017-07-23T23:21:13.066Z,49.61
2017-07-23T23:23:46.855Z,49.83
2017-07-23T23:26:25.082Z,49.90
2017-07-23T23:28:59.066Z,50.08
2017-07-23T23:31:32.793Z,50.55
2017-07-23T23:34:11.571Z,51.63
2017-07-23T23:36:44.910Z,52.90
2017-07-23T23:39:18.433Z,53.77
2017-07-23T23:41:52.629Z,53.79
2017-07-23T23:44:25.893Z,53.58
2017-07-23T23:47:02.266Z,54.31
2017-07-23T23:49:35.172Z,55.18
2017-07-23T23:52:12.931Z,56.58
2017-07-23T23:54:46.229Z,56.03
2017-07-23T23:57:19.337Z,56.51
2017-07-23T23:59:52.831Z,57.46
